sensor_id;sensor_type;location;lat;lon;timestamp;temperature;humidity
435;DHT22;204;48.942;9.256;2022-10-31T00:00:42;11.70;1.00
435;DHT22;204;48.942;9.256;2022-10-31T00:03:07;11.60;1.00
435;DHT22;204;48.942;9.256;2022-10-31T00:05:33;11.60;1.00
435;DHT22;204;48.942;9.256;2022-10-31T00:07:58;11.60;1.00
435;DHT22;204;48.942;9.256;2022-10-31T00:10:24;11.50;1.00
435;DHT22;204;48.942;9.256;2022-10-31T00:12:51;11.50;1.00
435;DHT22;204;48.942;9.256;2022-10-31T00:15:16;11.50;1.00
435;DHT22;204;48.942;9.256;2022-10-31T00:17:42;11.50;1.00
435;DHT22;204;48.942;9.256;2022-10-31T00:20:08;11.40;1.00
435;DHT22;204;48.942;9.256;2022-10-31T00:22:34;11.50;1.00
435;DHT22;204;48.942;9.256;2022-10-31T00:24:59;11.40;1.00
435;DHT22;204;48.942;9.256;2022-10-31T00:27:25;11.40;1.00
435;DHT22;204;48.942;9.256;2022-10-31T00:29:50;11.40;1.00
435;DHT22;204;48.942;9.256;2022-10-31T00:32:16;11.40;1.00
435;DHT22;204;48.942;9.256;2022-10-31T00:34:41;11.30;1.00
435;DHT22;204;48.942;9.256;2022-10-31T00:37:07;11.30;1.00
435;DHT22;204;48.942;9.256;2022-10-31T00:39:32;11.30;1.00
435;DHT22;204;48.942;9.256;2022-10-31T00:41:58;11.30;1.00
435;DHT22;204;48.942;9.256;2022-10-31T00:44:23;11.20;1.00
435;DHT22;204;48.942;9.256;2022-10-31T00:46:49;11.20;1.00
435;DHT22;204;48.942;9.256;2022-10-31T00:49:14;11.30;1.00
435;DHT22;204;48.942;9.256;2022-10-31T00:51:40;11.20;1.00
435;DHT22;204;48.942;9.256;2022-10-31T00:54:05;11.10;1.00
435;DHT22;204;48.942;9.256;2022-10-31T00:56:31;11.10;1.00
435;DHT22;204;48.942;9.256;2022-10-31T00:58:57;11.10;1.00
435;DHT22;204;48.942;9.256;2022-10-31T01:01:22;11.10;1.00
435;DHT22;204;48.942;9.256;2022-10-31T01:03:48;11.10;1.00
435;DHT22;204;48.942;9.256;2022-10-31T01:06:14;11.10;1.00
435;DHT22;204;48.942;9.256;2022-10-31T01:08:39;11.10;1.00
435;DHT22;204;48.942;9.256;2022-10-31T01:13:37;11.10;1.00
435;DHT22;204;48.942;9.256;2022-10-31T01:16:04;11.10;1.00
435;DHT22;204;48.942;9.256;2022-10-31T01:18:30;11.10;1.00
435;DHT22;204;48.942;9.256;2022-10-31T01:21:09;11.10;1.00
435;DHT22;204;48.942;9.256;2022-10-31T01:23:36;11.10;1.00
435;DHT22;204;48.942;9.256;2022-10-31T01:26:07;11.00;1.00
435;DHT22;204;48.942;9.256;2022-10-31T01:28:35;11.10;1.00
435;DHT22;204;48.942;9.256;2022-10-31T01:31:09;11.10;1.00
435;DHT22;204;48.942;9.256;2022-10-31T01:33:35;11.10;1.00
435;DHT22;204;48.942;9.256;2022-10-31T01:36:10;11.10;1.00
435;DHT22;204;48.942;9.256;2022-10-31T01:38:36;11.10;1.00
435;DHT22;204;48.942;9.256;2022-10-31T01:41:01;11.10;1.00
435;DHT22;204;48.942;9.256;2022-10-31T01:43:46;11.00;1.00
435;DHT22;204;48.942;9.256;2022-10-31T01:46:13;11.00;1.00
435;DHT22;204;48.942;9.256;2022-10-31T01:48:41;11.00;1.00
435;DHT22;204;48.942;9.256;2022-10-31T01:51:08;11.00;1.00
435;DHT22;204;48.942;9.256;2022-10-31T01:53:35;11.00;1.00
435;DHT22;204;48.942;9.256;2022-10-31T01:56:01;11.00;1.00
435;DHT22;204;48.942;9.256;2022-10-31T01:58:28;10.90;1.00
435;DHT22;204;48.942;9.256;2022-10-31T02:00:58;10.90;1.00
435;DHT22;204;48.942;9.256;2022-10-31T02:03:25;10.90;1.00
435;DHT22;204;48.942;9.256;2022-10-31T02:05:53;10.90;1.00
435;DHT22;204;48.942;9.256;2022-10-31T02:08:25;10.90;1.00
435;DHT22;204;48.942;9.256;2022-10-31T02:10:52;10.90;1.00
435;DHT22;204;48.942;9.256;2022-10-31T02:13:18;10.90;1.00
435;DHT22;204;48.942;9.256;2022-10-31T02:15:46;10.80;1.00
435;DHT22;204;48.942;9.256;2022-10-31T02:18:12;10.80;1.00
435;DHT22;204;48.942;9.256;2022-10-31T02:33:57;10.80;1.00
435;DHT22;204;48.942;9.256;2022-10-31T02:49:34;10.70;1.00
435;DHT22;204;48.942;9.256;2022-10-31T02:52:02;10.70;1.00
435;DHT22;204;48.942;9.256;2022-10-31T02:54:28;10.70;1.00
435;DHT22;204;48.942;9.256;2022-10-31T02:57:02;10.60;1.00
435;DHT22;204;48.942;9.256;2022-10-31T02:59:31;10.60;1.00
435;DHT22;204;48.942;9.256;2022-10-31T03:04:37;10.50;1.00
435;DHT22;204;48.942;9.256;2022-10-31T03:07:42;10.50;1.00
435;DHT22;204;48.942;9.256;2022-10-31T03:15:43;10.40;1.00
435;DHT22;204;48.942;9.256;2022-10-31T03:18:13;10.40;1.00
435;DHT22;204;48.942;9.256;2022-10-31T03:21:02;10.40;1.00
435;DHT22;204;48.942;9.256;2022-10-31T03:23:30;10.40;1.00
435;DHT22;204;48.942;9.256;2022-10-31T03:25:58;10.40;1.00
435;DHT22;204;48.942;9.256;2022-10-31T03:28:33;10.30;1.00
435;DHT22;204;48.942;9.256;2022-10-31T03:31:01;10.30;1.00
435;DHT22;204;48.942;9.256;2022-10-31T03:33:32;10.30;1.00
435;DHT22;204;48.942;9.256;2022-10-31T03:36:02;10.30;1.00
435;DHT22;204;48.942;9.256;2022-10-31T03:38:29;10.30;1.00
435;DHT22;204;48.942;9.256;2022-10-31T03:40:59;10.30;1.00
435;DHT22;204;48.942;9.256;2022-10-31T03:43:29;10.30;1.00
435;DHT22;204;48.942;9.256;2022-10-31T03:45:55;10.30;1.00
435;DHT22;204;48.942;9.256;2022-10-31T03:48:21;10.20;1.00
435;DHT22;204;48.942;9.256;2022-10-31T03:53:32;10.20;1.00
435;DHT22;204;48.942;9.256;2022-10-31T03:56:00;10.20;1.00
435;DHT22;204;48.942;9.256;2022-10-31T03:58:37;10.20;1.00
435;DHT22;204;48.942;9.256;2022-10-31T04:01:06;10.20;1.00
435;DHT22;204;48.942;9.256;2022-10-31T04:03:36;10.20;1.00
435;DHT22;204;48.942;9.256;2022-10-31T04:06:08;10.20;1.00
435;DHT22;204;48.942;9.256;2022-10-31T04:08:39;10.20;1.00
435;DHT22;204;48.942;9.256;2022-10-31T04:11:08;10.10;1.00
435;DHT22;204;48.942;9.256;2022-10-31T04:13:37;10.10;1.00
435;DHT22;204;48.942;9.256;2022-10-31T04:16:05;10.10;1.00
435;DHT22;204;48.942;9.256;2022-10-31T04:18:30;10.10;1.00
435;DHT22;204;48.942;9.256;2022-10-31T04:21:07;10.10;1.00
435;DHT22;204;48.942;9.256;2022-10-31T04:23:33;10.10;1.00
435;DHT22;204;48.942;9.256;2022-10-31T04:25:59;10.10;1.00
435;DHT22;204;48.942;9.256;2022-10-31T04:28:25;10.10;1.00
435;DHT22;204;48.942;9.256;2022-10-31T04:30:51;10.10;1.00
435;DHT22;204;48.942;9.256;2022-10-31T04:33:16;10.10;1.00
435;DHT22;204;48.942;9.256;2022-10-31T04:35:42;10.00;1.00
435;DHT22;204;48.942;9.256;2022-10-31T04:38:08;10.00;1.00
435;DHT22;204;48.942;9.256;2022-10-31T04:40:33;10.00;1.00
435;DHT22;204;48.942;9.256;2022-10-31T04:42:59;10.00;1.00
435;DHT22;204;48.942;9.256;2022-10-31T04:45:24;10.00;1.00
435;DHT22;204;48.942;9.256;2022-10-31T04:47:50;10.00;1.00
435;DHT22;204;48.942;9.256;2022-10-31T04:50:15;10.00;1.00
435;DHT22;204;48.942;9.256;2022-10-31T04:52:45;9.90;1.00
435;DHT22;204;48.942;9.256;2022-10-31T04:55:12;9.90;1.00
435;DHT22;204;48.942;9.256;2022-10-31T04:57:46;9.80;1.00
435;DHT22;204;48.942;9.256;2022-10-31T05:00:14;9.70;1.00
435;DHT22;204;48.942;9.256;2022-10-31T05:02:59;9.70;1.00
435;DHT22;204;48.942;9.256;2022-10-31T05:05:27;9.70;1.00
435;DHT22;204;48.942;9.256;2022-10-31T05:07:54;9.70;1.00
435;DHT22;204;48.942;9.256;2022-10-31T05:10:25;9.70;1.00
435;DHT22;204;48.942;9.256;2022-10-31T05:12:53;9.60;1.00
435;DHT22;204;48.942;9.256;2022-10-31T05:15:20;9.60;1.00
435;DHT22;204;48.942;9.256;2022-10-31T05:17:46;9.60;1.00
435;DHT22;204;48.942;9.256;2022-10-31T05:20:13;9.60;1.00
435;DHT22;204;48.942;9.256;2022-10-31T05:22:46;9.50;1.00
435;DHT22;204;48.942;9.256;2022-10-31T05:25:12;9.60;1.00
435;DHT22;204;48.942;9.256;2022-10-31T05:27:42;9.60;1.00
435;DHT22;204;48.942;9.256;2022-10-31T05:30:10;9.60;1.00
435;DHT22;204;48.942;9.256;2022-10-31T05:32:39;9.60;1.00
435;DHT22;204;48.942;9.256;2022-10-31T05:35:07;9.50;1.00
435;DHT22;204;48.942;9.256;2022-10-31T05:37:34;9.50;1.00
435;DHT22;204;48.942;9.256;2022-10-31T05:40:00;9.50;1.00
435;DHT22;204;48.942;9.256;2022-10-31T05:42:26;9.50;1.00
435;DHT22;204;48.942;9.256;2022-10-31T05:44:52;9.50;1.00
435;DHT22;204;48.942;9.256;2022-10-31T05:47:17;9.50;1.00
435;DHT22;204;48.942;9.256;2022-10-31T05:49:43;9.50;1.00
435;DHT22;204;48.942;9.256;2022-10-31T05:52:08;9.40;1.00
435;DHT22;204;48.942;9.256;2022-10-31T05:54:34;9.40;1.00
435;DHT22;204;48.942;9.256;2022-10-31T05:56:59;9.40;1.00
435;DHT22;204;48.942;9.256;2022-10-31T05:59:25;9.40;1.00
435;DHT22;204;48.942;9.256;2022-10-31T06:01:50;9.40;1.00
435;DHT22;204;48.942;9.256;2022-10-31T06:04:16;9.40;1.00
435;DHT22;204;48.942;9.256;2022-10-31T06:06:41;9.50;1.00
435;DHT22;204;48.942;9.256;2022-10-31T06:09:07;9.50;1.00
435;DHT22;204;48.942;9.256;2022-10-31T06:11:32;9.40;1.00
435;DHT22;204;48.942;9.256;2022-10-31T06:13:58;9.40;1.00
435;DHT22;204;48.942;9.256;2022-10-31T06:16:24;9.40;1.00
435;DHT22;204;48.942;9.256;2022-10-31T06:18:49;9.40;1.00
435;DHT22;204;48.942;9.256;2022-10-31T06:21:15;9.40;1.00
435;DHT22;204;48.942;9.256;2022-10-31T06:23:40;9.40;1.00
435;DHT22;204;48.942;9.256;2022-10-31T06:26:06;9.50;1.00
435;DHT22;204;48.942;9.256;2022-10-31T06:28:31;9.50;1.00
435;DHT22;204;48.942;9.256;2022-10-31T06:30:57;9.50;1.00
435;DHT22;204;48.942;9.256;2022-10-31T06:33:22;9.50;1.00
435;DHT22;204;48.942;9.256;2022-10-31T06:35:48;9.40;1.00
435;DHT22;204;48.942;9.256;2022-10-31T06:38:14;9.40;1.00
435;DHT22;204;48.942;9.256;2022-10-31T06:40:40;9.50;1.00
435;DHT22;204;48.942;9.256;2022-10-31T06:43:06;9.50;1.00
435;DHT22;204;48.942;9.256;2022-10-31T06:45:32;9.50;1.00
435;DHT22;204;48.942;9.256;2022-10-31T06:47:57;9.60;1.00
435;DHT22;204;48.942;9.256;2022-10-31T06:50:23;9.70;1.00
435;DHT22;204;48.942;9.256;2022-10-31T06:52:57;9.70;1.00
435;DHT22;204;48.942;9.256;2022-10-31T06:55:23;9.80;1.00
435;DHT22;204;48.942;9.256;2022-10-31T06:57:57;9.80;1.00
435;DHT22;204;48.942;9.256;2022-10-31T07:00:24;9.90;1.00
435;DHT22;204;48.942;9.256;2022-10-31T07:03:01;10.00;1.00
435;DHT22;204;48.942;9.256;2022-10-31T07:05:28;10.10;1.00
435;DHT22;204;48.942;9.256;2022-10-31T07:08:01;10.20;1.00
435;DHT22;204;48.942;9.256;2022-10-31T07:10:28;10.20;1.00
435;DHT22;204;48.942;9.256;2022-10-31T07:13:02;10.30;1.00
435;DHT22;204;48.942;9.256;2022-10-31T07:15:32;10.40;1.00
435;DHT22;204;48.942;9.256;2022-10-31T07:18:06;10.50;1.00
435;DHT22;204;48.942;9.256;2022-10-31T07:20:32;10.60;1.00
435;DHT22;204;48.942;9.256;2022-10-31T07:22:57;10.60;1.00
435;DHT22;204;48.942;9.256;2022-10-31T07:25:24;10.70;1.00
435;DHT22;204;48.942;9.256;2022-10-31T07:27:50;10.70;1.00
435;DHT22;204;48.942;9.256;2022-10-31T07:30:16;10.80;1.00
435;DHT22;204;48.942;9.256;2022-10-31T07:32:45;10.90;1.00
435;DHT22;204;48.942;9.256;2022-10-31T07:35:14;11.00;1.00
435;DHT22;204;48.942;9.256;2022-10-31T07:37:40;11.10;1.00
435;DHT22;204;48.942;9.256;2022-10-31T07:40:07;11.20;1.00
435;DHT22;204;48.942;9.256;2022-10-31T07:45:03;11.30;1.00
435;DHT22;204;48.942;9.256;2022-10-31T07:47:29;11.40;1.00
435;DHT22;204;48.942;9.256;2022-10-31T07:49:54;11.60;1.00
435;DHT22;204;48.942;9.256;2022-10-31T07:52:20;11.70;1.00
435;DHT22;204;48.942;9.256;2022-10-31T07:54:45;11.80;1.00
435;DHT22;204;48.942;9.256;2022-10-31T07:57:11;11.90;1.00
435;DHT22;204;48.942;9.256;2022-10-31T07:59:36;12.00;1.00
435;DHT22;204;48.942;9.256;2022-10-31T08:02:02;12.10;1.00
435;DHT22;204;48.942;9.256;2022-10-31T08:04:27;12.20;1.00
435;DHT22;204;48.942;9.256;2022-10-31T08:06:53;12.30;1.00
435;DHT22;204;48.942;9.256;2022-10-31T08:09:19;12.40;1.00
435;DHT22;204;48.942;9.256;2022-10-31T08:11:44;12.50;1.00
435;DHT22;204;48.942;9.256;2022-10-31T08:14:10;12.60;1.00
435;DHT22;204;48.942;9.256;2022-10-31T08:16:35;12.70;1.00
435;DHT22;204;48.942;9.256;2022-10-31T08:19:01;12.90;1.00
435;DHT22;204;48.942;9.256;2022-10-31T08:21:26;12.90;1.00
435;DHT22;204;48.942;9.256;2022-10-31T08:23:52;13.00;1.00
435;DHT22;204;48.942;9.256;2022-10-31T08:26:17;13.10;1.00
435;DHT22;204;48.942;9.256;2022-10-31T08:28:43;13.20;1.00
435;DHT22;204;48.942;9.256;2022-10-31T08:31:08;13.30;1.00
435;DHT22;204;48.942;9.256;2022-10-31T08:33:35;13.50;1.00
435;DHT22;204;48.942;9.256;2022-10-31T08:36:01;13.60;1.00
435;DHT22;204;48.942;9.256;2022-10-31T08:38:26;13.70;1.00
435;DHT22;204;48.942;9.256;2022-10-31T08:40:52;13.80;1.00
435;DHT22;204;48.942;9.256;2022-10-31T08:43:18;14.00;1.00
435;DHT22;204;48.942;9.256;2022-10-31T08:45:47;14.10;1.00
435;DHT22;204;48.942;9.256;2022-10-31T08:48:14;14.30;1.00
435;DHT22;204;48.942;9.256;2022-10-31T08:50:41;14.40;1.00
435;DHT22;204;48.942;9.256;2022-10-31T08:53:10;14.60;1.00
435;DHT22;204;48.942;9.256;2022-10-31T08:55:37;14.70;1.00
435;DHT22;204;48.942;9.256;2022-10-31T08:58:09;14.80;1.00
435;DHT22;204;48.942;9.256;2022-10-31T09:00:35;14.90;1.00
435;DHT22;204;48.942;9.256;2022-10-31T09:03:02;15.00;1.00
435;DHT22;204;48.942;9.256;2022-10-31T09:05:29;15.10;1.00
435;DHT22;204;48.942;9.256;2022-10-31T09:07:56;15.20;1.00
435;DHT22;204;48.942;9.256;2022-10-31T09:10:22;15.30;1.00
435;DHT22;204;48.942;9.256;2022-10-31T09:12:55;15.50;1.00
435;DHT22;204;48.942;9.256;2022-10-31T09:15:20;15.60;1.00
435;DHT22;204;48.942;9.256;2022-10-31T09:17:47;15.70;1.00
435;DHT22;204;48.942;9.256;2022-10-31T09:20:13;15.80;1.00
435;DHT22;204;48.942;9.256;2022-10-31T09:22:38;15.90;1.00
435;DHT22;204;48.942;9.256;2022-10-31T09:25:04;16.00;1.00
435;DHT22;204;48.942;9.256;2022-10-31T09:27:30;16.10;1.00
435;DHT22;204;48.942;9.256;2022-10-31T09:29:55;16.20;1.00
435;DHT22;204;48.942;9.256;2022-10-31T09:32:21;16.30;1.00
435;DHT22;204;48.942;9.256;2022-10-31T09:34:46;16.40;1.00
435;DHT22;204;48.942;9.256;2022-10-31T09:37:12;16.50;1.00
435;DHT22;204;48.942;9.256;2022-10-31T09:39:37;16.60;1.00
435;DHT22;204;48.942;9.256;2022-10-31T09:42:47;16.70;1.00
435;DHT22;204;48.942;9.256;2022-10-31T09:45:32;16.90;1.00
435;DHT22;204;48.942;9.256;2022-10-31T09:50:58;17.10;1.00
435;DHT22;204;48.942;9.256;2022-10-31T09:53:34;17.20;1.00
435;DHT22;204;48.942;9.256;2022-10-31T09:56:02;17.30;1.00
435;DHT22;204;48.942;9.256;2022-10-31T09:58:30;17.40;1.00
435;DHT22;204;48.942;9.256;2022-10-31T10:01:00;17.50;1.00
435;DHT22;204;48.942;9.256;2022-10-31T10:03:42;17.50;1.00
435;DHT22;204;48.942;9.256;2022-10-31T10:06:24;17.60;1.00
435;DHT22;204;48.942;9.256;2022-10-31T10:08:51;17.70;1.00
435;DHT22;204;48.942;9.256;2022-10-31T10:12:01;17.70;1.00
435;DHT22;204;48.942;9.256;2022-10-31T10:17:08;17.80;1.00
435;DHT22;204;48.942;9.256;2022-10-31T10:25:22;18.00;1.00
435;DHT22;204;48.942;9.256;2022-10-31T10:28:03;18.00;1.00
435;DHT22;204;48.942;9.256;2022-10-31T10:30:59;18.10;1.00
435;DHT22;204;48.942;9.256;2022-10-31T10:33:36;18.20;1.00
435;DHT22;204;48.942;9.256;2022-10-31T10:36:08;18.30;1.00
435;DHT22;204;48.942;9.256;2022-10-31T10:38:51;18.40;1.00
435;DHT22;204;48.942;9.256;2022-10-31T10:41:20;18.50;1.00
435;DHT22;204;48.942;9.256;2022-10-31T10:43:48;18.70;1.00
435;DHT22;204;48.942;9.256;2022-10-31T10:46:42;18.80;1.00
435;DHT22;204;48.942;9.256;2022-10-31T10:49:35;19.00;1.00
435;DHT22;204;48.942;9.256;2022-10-31T10:58:00;19.20;1.00
435;DHT22;204;48.942;9.256;2022-10-31T11:00:30;19.30;1.00
435;DHT22;204;48.942;9.256;2022-10-31T11:02:56;19.40;1.00
435;DHT22;204;48.942;9.256;2022-10-31T11:08:02;19.60;1.00
435;DHT22;204;48.942;9.256;2022-10-31T11:10:28;19.70;1.00
435;DHT22;204;48.942;9.256;2022-10-31T11:13:14;19.70;1.00
435;DHT22;204;48.942;9.256;2022-10-31T11:15:59;19.80;1.00
435;DHT22;204;48.942;9.256;2022-10-31T11:18:29;19.90;1.00
435;DHT22;204;48.942;9.256;2022-10-31T11:20:57;20.00;1.00
435;DHT22;204;48.942;9.256;2022-10-31T11:23:25;20.10;1.00
435;DHT22;204;48.942;9.256;2022-10-31T11:28:19;20.20;1.00
435;DHT22;204;48.942;9.256;2022-10-31T11:30:52;20.30;1.00
435;DHT22;204;48.942;9.256;2022-10-31T11:33:37;20.30;1.00
435;DHT22;204;48.942;9.256;2022-10-31T11:36:15;20.40;1.00
435;DHT22;204;48.942;9.256;2022-10-31T11:38:43;20.50;1.00
435;DHT22;204;48.942;9.256;2022-10-31T11:46:39;20.70;1.00
435;DHT22;204;48.942;9.256;2022-10-31T11:49:15;20.80;1.00
435;DHT22;204;48.942;9.256;2022-10-31T11:51:41;20.70;1.00
435;DHT22;204;48.942;9.256;2022-10-31T11:54:19;20.80;1.00
435;DHT22;204;48.942;9.256;2022-10-31T11:56:45;20.90;1.00
435;DHT22;204;48.942;9.256;2022-10-31T12:01:50;21.10;1.00
435;DHT22;204;48.942;9.256;2022-10-31T12:04:16;21.10;1.00
435;DHT22;204;48.942;9.256;2022-10-31T12:06:46;21.20;1.00
435;DHT22;204;48.942;9.256;2022-10-31T12:09:29;21.20;1.00
435;DHT22;204;48.942;9.256;2022-10-31T12:17:28;21.40;1.00
435;DHT22;204;48.942;9.256;2022-10-31T12:25:35;21.50;1.00
435;DHT22;204;48.942;9.256;2022-10-31T12:33:54;21.40;1.00
435;DHT22;204;48.942;9.256;2022-10-31T12:55:41;21.50;1.00
435;DHT22;204;48.942;9.256;2022-10-31T12:58:26;21.60;1.00
435;DHT22;204;48.942;9.256;2022-10-31T13:01:09;21.60;1.00
435;DHT22;204;48.942;9.256;2022-10-31T13:06:27;21.50;1.00
435;DHT22;204;48.942;9.256;2022-10-31T13:08:59;21.40;1.00
435;DHT22;204;48.942;9.256;2022-10-31T13:11:30;21.30;1.00
435;DHT22;204;48.942;9.256;2022-10-31T13:14:20;21.20;1.00
435;DHT22;204;48.942;9.256;2022-10-31T13:16:49;21.20;1.00
435;DHT22;204;48.942;9.256;2022-10-31T13:19:19;21.10;1.00
435;DHT22;204;48.942;9.256;2022-10-31T13:27:03;21.00;1.00
435;DHT22;204;48.942;9.256;2022-10-31T13:29:39;20.90;1.00
435;DHT22;204;48.942;9.256;2022-10-31T13:32:07;20.90;1.00
435;DHT22;204;48.942;9.256;2022-10-31T13:34:42;20.90;1.00
435;DHT22;204;48.942;9.256;2022-10-31T13:37:29;20.80;1.00
435;DHT22;204;48.942;9.256;2022-10-31T13:40:19;20.70;1.00
435;DHT22;204;48.942;9.256;2022-10-31T13:45:21;20.60;1.00
435;DHT22;204;48.942;9.256;2022-10-31T13:50:41;20.60;1.00
435;DHT22;204;48.942;9.256;2022-10-31T13:55:47;20.70;1.00
435;DHT22;204;48.942;9.256;2022-10-31T13:58:24;20.80;1.00
435;DHT22;204;48.942;9.256;2022-10-31T14:01:16;20.90;1.00
435;DHT22;204;48.942;9.256;2022-10-31T14:03:45;21.00;1.00
435;DHT22;204;48.942;9.256;2022-10-31T14:06:12;21.20;1.00
435;DHT22;204;48.942;9.256;2022-10-31T14:08:46;21.30;1.00
435;DHT22;204;48.942;9.256;2022-10-31T14:11:26;21.40;1.00
435;DHT22;204;48.942;9.256;2022-10-31T14:13:55;21.40;1.00
435;DHT22;204;48.942;9.256;2022-10-31T14:16:27;21.30;1.00
435;DHT22;204;48.942;9.256;2022-10-31T14:19:16;21.20;1.00
435;DHT22;204;48.942;9.256;2022-10-31T14:21:45;21.00;1.00
435;DHT22;204;48.942;9.256;2022-10-31T14:24:35;20.80;1.00
435;DHT22;204;48.942;9.256;2022-10-31T14:29:49;20.30;1.00
435;DHT22;204;48.942;9.256;2022-10-31T14:32:25;20.00;1.00
435;DHT22;204;48.942;9.256;2022-10-31T14:34:58;19.90;1.00
435;DHT22;204;48.942;9.256;2022-10-31T14:51:38;19.10;1.00
435;DHT22;204;48.942;9.256;2022-10-31T14:54:06;19.00;1.00
435;DHT22;204;48.942;9.256;2022-10-31T14:56:35;18.90;1.00
435;DHT22;204;48.942;9.256;2022-10-31T14:59:07;18.80;1.00
435;DHT22;204;48.942;9.256;2022-10-31T15:01:35;18.90;1.00
435;DHT22;204;48.942;9.256;2022-10-31T15:04:24;18.80;1.00
435;DHT22;204;48.942;9.256;2022-10-31T15:07:17;18.80;1.00
435;DHT22;204;48.942;9.256;2022-10-31T15:09:44;18.70;1.00
435;DHT22;204;48.942;9.256;2022-10-31T15:12:37;18.70;1.00
435;DHT22;204;48.942;9.256;2022-10-31T15:17:44;18.60;1.00
435;DHT22;204;48.942;9.256;2022-10-31T15:20:18;18.60;1.00
435;DHT22;204;48.942;9.256;2022-10-31T15:22:44;18.60;1.00
435;DHT22;204;48.942;9.256;2022-10-31T15:25:19;18.60;1.00
435;DHT22;204;48.942;9.256;2022-10-31T15:27:50;18.50;1.00
435;DHT22;204;48.942;9.256;2022-10-31T15:30:21;18.50;1.00
435;DHT22;204;48.942;9.256;2022-10-31T15:32:48;18.50;1.00
435;DHT22;204;48.942;9.256;2022-10-31T15:35:25;18.40;1.00
435;DHT22;204;48.942;9.256;2022-10-31T15:37:52;18.40;1.00
435;DHT22;204;48.942;9.256;2022-10-31T15:40:20;18.30;1.00
435;DHT22;204;48.942;9.256;2022-10-31T15:42:59;18.20;1.00
435;DHT22;204;48.942;9.256;2022-10-31T15:45:27;18.10;1.00
435;DHT22;204;48.942;9.256;2022-10-31T15:48:13;18.00;1.00
435;DHT22;204;48.942;9.256;2022-10-31T15:51:06;17.90;1.00
435;DHT22;204;48.942;9.256;2022-10-31T15:53:49;17.70;1.00
435;DHT22;204;48.942;9.256;2022-10-31T15:56:28;17.60;1.00
435;DHT22;204;48.942;9.256;2022-10-31T15:58:55;17.40;1.00
435;DHT22;204;48.942;9.256;2022-10-31T16:01:27;17.30;1.00
435;DHT22;204;48.942;9.256;2022-10-31T16:06:37;17.00;1.00
435;DHT22;204;48.942;9.256;2022-10-31T16:09:04;16.90;1.00
435;DHT22;204;48.942;9.256;2022-10-31T16:11:43;16.80;1.00
435;DHT22;204;48.942;9.256;2022-10-31T16:16:41;16.50;1.00
435;DHT22;204;48.942;9.256;2022-10-31T16:19:35;16.40;1.00
435;DHT22;204;48.942;9.256;2022-10-31T16:22:08;16.30;1.00
435;DHT22;204;48.942;9.256;2022-10-31T16:24:49;16.20;1.00
435;DHT22;204;48.942;9.256;2022-10-31T16:27:33;16.10;1.00
435;DHT22;204;48.942;9.256;2022-10-31T16:30:00;16.00;1.00
435;DHT22;204;48.942;9.256;2022-10-31T16:32:33;15.90;1.00
435;DHT22;204;48.942;9.256;2022-10-31T16:35:21;15.80;1.00
435;DHT22;204;48.942;9.256;2022-10-31T16:37:48;15.60;1.00
435;DHT22;204;48.942;9.256;2022-10-31T16:40:14;15.50;1.00
435;DHT22;204;48.942;9.256;2022-10-31T16:42:41;15.40;1.00
435;DHT22;204;48.942;9.256;2022-10-31T16:45:07;15.40;1.00
435;DHT22;204;48.942;9.256;2022-10-31T16:47:33;15.30;1.00
435;DHT22;204;48.942;9.256;2022-10-31T16:49:59;15.30;1.00
435;DHT22;204;48.942;9.256;2022-10-31T16:52:25;15.20;1.00
435;DHT22;204;48.942;9.256;2022-10-31T16:54:51;15.10;1.00
435;DHT22;204;48.942;9.256;2022-10-31T16:57:26;15.00;1.00
435;DHT22;204;48.942;9.256;2022-10-31T16:59:52;15.00;1.00
435;DHT22;204;48.942;9.256;2022-10-31T17:02:21;14.90;1.00
435;DHT22;204;48.942;9.256;2022-10-31T17:04:47;14.90;1.00
435;DHT22;204;48.942;9.256;2022-10-31T17:07:12;14.80;1.00
435;DHT22;204;48.942;9.256;2022-10-31T17:09:38;14.80;1.00
435;DHT22;204;48.942;9.256;2022-10-31T17:12:05;14.70;1.00
435;DHT22;204;48.942;9.256;2022-10-31T17:14:32;14.70;1.00
435;DHT22;204;48.942;9.256;2022-10-31T17:16:58;14.60;1.00
435;DHT22;204;48.942;9.256;2022-10-31T17:19:23;14.50;1.00
435;DHT22;204;48.942;9.256;2022-10-31T17:21:49;14.60;1.00
435;DHT22;204;48.942;9.256;2022-10-31T17:24:14;14.60;1.00
435;DHT22;204;48.942;9.256;2022-10-31T17:26:40;14.50;1.00
435;DHT22;204;48.942;9.256;2022-10-31T17:29:06;14.50;1.00
435;DHT22;204;48.942;9.256;2022-10-31T17:31:33;14.40;1.00
435;DHT22;204;48.942;9.256;2022-10-31T17:34:01;14.40;1.00
435;DHT22;204;48.942;9.256;2022-10-31T17:36:30;14.30;1.00
435;DHT22;204;48.942;9.256;2022-10-31T17:38:56;14.30;1.00
435;DHT22;204;48.942;9.256;2022-10-31T17:41:21;14.20;1.00
435;DHT22;204;48.942;9.256;2022-10-31T17:43:47;14.20;1.00
435;DHT22;204;48.942;9.256;2022-10-31T17:46:12;14.10;1.00
435;DHT22;204;48.942;9.256;2022-10-31T17:48:39;14.10;1.00
435;DHT22;204;48.942;9.256;2022-10-31T17:51:05;14.00;1.00
435;DHT22;204;48.942;9.256;2022-10-31T17:53:32;14.00;1.00
435;DHT22;204;48.942;9.256;2022-10-31T17:56:08;13.90;1.00
435;DHT22;204;48.942;9.256;2022-10-31T17:58:35;13.90;1.00
435;DHT22;204;48.942;9.256;2022-10-31T18:01:13;13.80;1.00
435;DHT22;204;48.942;9.256;2022-10-31T18:03:39;13.70;1.00
435;DHT22;204;48.942;9.256;2022-10-31T18:06:05;13.70;1.00
435;DHT22;204;48.942;9.256;2022-10-31T18:08:34;13.60;1.00
435;DHT22;204;48.942;9.256;2022-10-31T18:11:05;13.60;1.00
435;DHT22;204;48.942;9.256;2022-10-31T18:13:30;13.50;1.00
435;DHT22;204;48.942;9.256;2022-10-31T18:15:56;13.40;1.00
435;DHT22;204;48.942;9.256;2022-10-31T18:18:22;13.40;1.00
435;DHT22;204;48.942;9.256;2022-10-31T18:20:47;13.30;1.00
435;DHT22;204;48.942;9.256;2022-10-31T18:23:13;13.30;1.00
435;DHT22;204;48.942;9.256;2022-10-31T18:25:39;13.30;1.00
435;DHT22;204;48.942;9.256;2022-10-31T18:28:05;13.20;1.00
435;DHT22;204;48.942;9.256;2022-10-31T18:30:32;13.10;1.00
435;DHT22;204;48.942;9.256;2022-10-31T18:32:57;13.10;1.00
435;DHT22;204;48.942;9.256;2022-10-31T18:35:23;13.10;1.00
435;DHT22;204;48.942;9.256;2022-10-31T18:37:49;13.10;1.00
435;DHT22;204;48.942;9.256;2022-10-31T18:40:14;13.10;1.00
435;DHT22;204;48.942;9.256;2022-10-31T18:42:40;13.00;1.00
435;DHT22;204;48.942;9.256;2022-10-31T18:45:06;13.00;1.00
435;DHT22;204;48.942;9.256;2022-10-31T18:47:32;13.00;1.00
435;DHT22;204;48.942;9.256;2022-10-31T18:49:57;13.00;1.00
435;DHT22;204;48.942;9.256;2022-10-31T18:52:23;12.90;1.00
435;DHT22;204;48.942;9.256;2022-10-31T18:54:49;12.90;1.00
435;DHT22;204;48.942;9.256;2022-10-31T18:57:14;12.90;1.00
435;DHT22;204;48.942;9.256;2022-10-31T18:59:40;12.80;1.00
435;DHT22;204;48.942;9.256;2022-10-31T19:02:05;12.90;1.00
435;DHT22;204;48.942;9.256;2022-10-31T19:04:31;13.00;1.00
435;DHT22;204;48.942;9.256;2022-10-31T19:06:57;13.00;1.00
435;DHT22;204;48.942;9.256;2022-10-31T19:09:22;13.10;1.00
435;DHT22;204;48.942;9.256;2022-10-31T19:11:48;13.20;1.00
435;DHT22;204;48.942;9.256;2022-10-31T19:14:14;13.20;1.00
435;DHT22;204;48.942;9.256;2022-10-31T19:16:40;13.30;1.00
435;DHT22;204;48.942;9.256;2022-10-31T19:19:05;13.30;1.00
435;DHT22;204;48.942;9.256;2022-10-31T19:21:31;13.30;1.00
435;DHT22;204;48.942;9.256;2022-10-31T19:23:58;13.30;1.00
435;DHT22;204;48.942;9.256;2022-10-31T19:26:25;13.40;1.00
435;DHT22;204;48.942;9.256;2022-10-31T19:28:51;13.30;1.00
435;DHT22;204;48.942;9.256;2022-10-31T19:31:17;13.30;1.00
435;DHT22;204;48.942;9.256;2022-10-31T19:33:44;13.30;1.00
435;DHT22;204;48.942;9.256;2022-10-31T19:36:12;13.40;1.00
435;DHT22;204;48.942;9.256;2022-10-31T19:38:42;13.40;1.00